createdAt,value
2018-10-02T05:59:55.000Z,8.28
2018-10-02T06:04:58.306Z,8.17
2018-10-02T06:10:01.617Z,7.63
2018-10-02T06:15:04.880Z,7.30
2018-10-02T06:20:08.021Z,7.22
2018-10-02T06:25:11.173Z,7.42
2018-10-02T06:30:14.346Z,7.47
2018-10-02T06:35:17.476Z,6.55
2018-10-02T06:40:20.677Z,6.77
2018-10-02T06:45:23.842Z,6.60
2018-10-02T06:50:27.024Z,6.28
2018-10-02T06:55:30.219Z,6.40
2018-10-02T07:00:33.416Z,5.70
2018-10-02T07:05:36.592Z,5.60
2018-10-02T07:10:39.951Z,5.10
2018-10-02T07:15:43.207Z,5.13
2018-10-02T07:20:46.566Z,4.77
2018-10-02T07:25:49.720Z,5.08
2018-10-02T07:30:53.019Z,5.97
2018-10-02T07:35:56.256Z,5.47
2018-10-02T07:40:59.508Z,5.60
2018-10-02T07:46:02.904Z,5.03
2018-10-02T07:51:06.419Z,5.40
2018-10-02T07:56:09.652Z,6.10
2018-10-02T08:01:12.887Z,5.10
2018-10-02T08:06:16.201Z,4.65
2018-10-02T08:11:19.426Z,4.70
2018-10-02T08:16:22.607Z,4.85
2018-10-02T08:21:25.798Z,4.27
2018-10-02T08:26:29.023Z,3.97
2018-10-02T08:31:32.242Z,3.92
2018-10-02T08:36:35.444Z,3.12
2018-10-02T08:41:38.880Z,4.28
2018-10-02T08:46:42.082Z,4.30
2018-10-02T08:51:45.354Z,3.55
2018-10-02T09:02:17.095Z,3.20
2018-10-02T09:07:20.295Z,3.85
2018-10-02T09:12:23.544Z,3.60
2018-10-02T09:17:26.755Z,3.10
2018-10-02T09:22:30.112Z,3.77
2018-10-02T09:27:33.403Z,3.12
2018-10-02T09:32:42.024Z,3.33
2018-10-02T09:37:50.640Z,3.75
2018-10-02T09:42:59.433Z,3.47
2018-10-02T09:48:07.728Z,4.17
2018-10-02T09:53:10.955Z,4.05
2018-10-02T09:58:14.371Z,4.70
2018-10-02T10:03:17.644Z,4.60
2018-10-02T10:08:20.875Z,5.30
2018-10-02T10:13:24.071Z,5.58
2018-10-02T10:18:27.263Z,9.13
2018-10-02T10:23:30.483Z,5.90
2018-10-02T10:28:33.751Z,5.80
2018-10-02T10:33:36.918Z,6.83
2018-10-02T10:38:40.151Z,7.30
2018-10-02T10:43:43.411Z,7.15
2018-10-02T10:48:46.599Z,7.62
2018-10-02T10:53:49.819Z,7.55
2018-10-02T10:58:53.026Z,10.13
2018-10-02T11:03:56.276Z,9.63
2018-10-02T11:08:59.470Z,9.63
2018-10-02T11:14:02.709Z,10.10
2018-10-02T11:19:05.919Z,8.68
2018-10-02T11:24:09.142Z,9.28
2018-10-02T11:29:12.290Z,10.30
2018-10-02T11:34:15.466Z,11.03
2018-10-02T11:39:18.735Z,10.30
2018-10-02T11:44:22.272Z,10.93
2018-10-02T11:49:25.503Z,11.13
2018-10-02T11:54:28.807Z,11.43
2018-10-02T11:59:32.005Z,11.33
2018-10-02T12:04:35.187Z,11.63
2018-10-02T12:09:38.371Z,11.48
2018-10-02T12:14:41.598Z,11.10
2018-10-02T12:19:44.877Z,10.70
2018-10-02T12:24:48.412Z,12.15
2018-10-02T12:29:51.585Z,10.53
2018-10-02T12:34:54.755Z,13.25
2018-10-02T12:39:58.266Z,12.13
2018-10-02T12:45:01.487Z,10.72
2018-10-02T12:50:05.051Z,9.60
2018-10-02T12:55:08.437Z,9.08
2018-10-02T13:00:11.610Z,9.83
2018-10-02T13:05:14.797Z,7.78
2018-10-02T13:10:18.063Z,7.90
2018-10-02T13:15:21.315Z,7.97
2018-10-02T13:20:24.561Z,7.20
2018-10-02T13:25:27.797Z,8.25
2018-10-02T13:30:30.879Z,7.65
2018-10-02T13:35:34.415Z,7.05
2018-10-02T13:40:37.736Z,7.55
2018-10-02T13:45:40.893Z,7.00
2018-10-02T13:50:44.151Z,7.10
2018-10-02T13:55:47.235Z,7.80
2018-10-02T14:00:50.398Z,7.08
2018-10-02T14:05:53.607Z,6.72
2018-10-02T14:10:56.811Z,6.03
2018-10-02T14:16:00.032Z,6.60
2018-10-02T14:21:03.251Z,7.03
2018-10-02T14:26:06.508Z,5.50
2018-10-02T14:31:09.886Z,4.90
2018-10-02T14:36:13.099Z,6.00
2018-10-02T14:41:16.325Z,3.30
2018-10-02T14:46:19.515Z,3.97
2018-10-02T14:51:22.684Z,2.62
2018-10-02T14:56:25.875Z,2.47
2018-10-02T15:01:29.074Z,2.60
2018-10-02T15:06:32.223Z,2.75
2018-10-02T15:11:35.419Z,2.10
2018-10-02T15:16:38.612Z,2.33
2018-10-02T15:21:41.875Z,2.67
2018-10-02T15:26:45.094Z,2.00
2018-10-02T15:31:48.398Z,1.87
2018-10-02T15:36:51.543Z,1.90
2018-10-02T15:41:54.751Z,2.45
2018-10-02T15:46:57.958Z,2.17
2018-10-02T15:52:01.167Z,1.67
2018-10-02T15:57:04.396Z,3.83
2018-10-02T16:02:07.784Z,4.65
2018-10-02T16:07:11.303Z,2.37
2018-10-02T16:12:14.560Z,2.62
2018-10-02T16:17:17.787Z,2.75
2018-10-02T16:22:21.195Z,2.95
2018-10-02T16:27:24.652Z,2.37
2018-10-02T16:32:27.923Z,3.20
2018-10-02T16:37:31.381Z,2.27
2018-10-02T16:42:34.666Z,3.20
2018-10-02T16:47:37.981Z,2.43
2018-10-02T16:52:41.304Z,2.92
2018-10-02T16:57:44.939Z,2.50
2018-10-02T17:02:48.158Z,2.65
2018-10-02T17:07:51.435Z,2.10
2018-10-02T17:12:54.634Z,2.55
2018-10-02T17:17:57.835Z,3.50
2018-10-02T17:23:01.055Z,3.20
2018-10-02T17:28:04.259Z,2.55
2018-10-02T17:33:07.472Z,2.97
2018-10-02T17:38:10.691Z,2.98
2018-10-02T17:43:13.903Z,3.30
2018-10-02T17:48:17.096Z,3.50
2018-10-02T17:55:27.541Z,3.67
2018-10-02T18:00:30.735Z,3.17
2018-10-02T18:05:33.937Z,3.47
2018-10-02T18:10:37.145Z,3.80
2018-10-02T18:15:40.352Z,4.70
2018-10-02T18:20:43.641Z,3.90
2018-10-02T18:25:46.859Z,4.78
2018-10-02T18:30:50.197Z,3.40
2018-10-02T18:35:53.538Z,3.77
2018-10-02T18:40:56.865Z,3.85
2018-10-02T18:46:00.149Z,3.60
2018-10-02T18:51:03.337Z,6.13
2018-10-02T18:56:06.584Z,3.27
2018-10-02T19:01:09.787Z,8.05
2018-10-02T19:06:13.117Z,11.68
2018-10-02T19:11:21.567Z,4.07
2018-10-02T19:16:28.885Z,5.43
2018-10-02T19:21:32.091Z,4.12
2018-10-02T19:26:35.333Z,4.83
2018-10-02T19:31:43.979Z,5.15
2018-10-02T19:36:47.180Z,4.75
2018-10-02T19:41:50.911Z,4.77
2018-10-02T19:46:58.486Z,7.80
2018-10-02T19:52:10.598Z,5.37
2018-10-02T19:57:16.686Z,4.42
2018-10-02T20:02:19.875Z,5.95
2018-10-02T20:07:23.408Z,5.63
2018-10-02T20:12:26.531Z,10.13
2018-10-02T20:17:30.266Z,6.83
2018-10-02T20:22:33.504Z,11.03
2018-10-02T20:27:36.791Z,5.10
2018-10-02T20:32:40.281Z,3.80
2018-10-02T20:37:43.752Z,3.42
2018-10-02T20:42:47.440Z,4.05
2018-10-02T20:47:50.639Z,5.30
2018-10-02T20:52:54.243Z,4.85
2018-10-02T20:57:57.426Z,4.70
2018-10-02T21:03:00.608Z,4.05
2018-10-02T21:08:03.801Z,4.17
2018-10-02T21:13:06.991Z,5.08
2018-10-02T21:18:10.202Z,4.30
2018-10-02T21:23:13.394Z,4.92
2018-10-02T21:28:16.587Z,4.00
2018-10-02T21:33:19.786Z,4.05
2018-10-02T21:38:23.020Z,4.70
2018-10-02T21:43:26.272Z,4.80
2018-10-02T21:48:29.491Z,4.47
2018-10-02T21:53:32.731Z,4.62
2018-10-02T21:58:36.070Z,6.60
2018-10-02T22:03:40.223Z,5.15
2018-10-02T22:08:43.417Z,4.35
2018-10-02T22:13:46.678Z,4.70
2018-10-02T22:18:49.857Z,5.62
2018-10-02T22:23:53.094Z,3.80
2018-10-02T22:28:56.324Z,5.62
2018-10-02T22:33:59.491Z,4.72
2018-10-02T22:39:02.716Z,4.60
2018-10-02T22:44:06.191Z,4.67
2018-10-02T22:49:09.346Z,4.47
2018-10-02T22:54:12.511Z,5.05
2018-10-02T22:59:15.775Z,4.25
2018-10-02T23:04:18.806Z,3.90
2018-10-02T23:09:22.007Z,4.22
2018-10-02T23:14:25.191Z,4.55
2018-10-02T23:19:28.387Z,5.10
2018-10-02T23:24:31.611Z,4.53
2018-10-02T23:29:34.975Z,4.10
2018-10-02T23:34:38.286Z,4.15
2018-10-02T23:39:41.541Z,4.33
2018-10-02T23:44:44.811Z,4.10
2018-10-02T23:49:47.997Z,4.30
2018-10-02T23:54:51.207Z,4.10
2018-10-02T23:59:54.447Z,4.25
